Terminal Aerodrome Forecast
Issued by NWS Quad Cities IA IL

Home | Current Version | Previous Version | Text Only | Print | Product List | Glossary On
Versions: 1 2 3 4 5 6 7 8 9 10 11 12 13 14 15 16 17 18 19
000
FTUS43 KDVN 141120
TAFDBQ
TAF
KDBQ 141120Z 1412/1512 03006KT P6SM BKN018
     FM141210 03006KT P6SM SCT018
     FM141600 VRB03KT P6SM SCT250
     FM142200 26006KT P6SM OVC035=

USA.gov is the U.S. government's official web portal to all federal, state and local government web resources and services.